createdAt,value
2022-12-04T00:01:47.857Z,8.46
2022-12-04T00:04:18.240Z,8.38
2022-12-04T00:06:52.729Z,8.48
2022-12-04T00:09:25.791Z,8.28
2022-12-04T00:11:56.881Z,8.24
2022-12-04T00:14:27.532Z,8.41
2022-12-04T00:16:59.018Z,8.29
2022-12-04T00:19:29.394Z,8.55
2022-12-04T00:22:00.054Z,8.43
2022-12-04T00:24:31.060Z,8.36
2022-12-04T00:27:01.967Z,8.29
2022-12-04T00:29:32.328Z,8.13
2022-12-04T00:32:03.301Z,8.30
2022-12-04T00:34:33.907Z,8.05
2022-12-04T00:37:04.480Z,7.95
2022-12-04T00:39:35.780Z,8.09
2022-12-04T00:42:06.826Z,8.11
2022-12-04T00:44:37.246Z,8.39
2022-12-04T00:47:08.125Z,8.61
2022-12-04T00:49:38.823Z,8.62
2022-12-04T00:52:09.750Z,8.43
2022-12-04T00:54:41.743Z,8.41
2022-12-04T00:57:12.827Z,8.19
2022-12-04T00:59:43.493Z,7.99
2022-12-04T01:02:14.465Z,8.04
2022-12-04T01:04:44.978Z,8.14
2022-12-04T01:07:15.881Z,8.27
2022-12-04T01:09:46.312Z,8.01
2022-12-04T01:12:20.746Z,8.12
2022-12-04T01:14:51.564Z,7.96
2022-12-04T01:17:22.663Z,8.03
2022-12-04T01:19:53.745Z,7.91
2022-12-04T01:22:24.739Z,7.86
2022-12-04T01:24:57.715Z,7.70
2022-12-04T01:27:28.695Z,8.02
2022-12-04T01:29:59.270Z,8.07
2022-12-04T01:32:31.148Z,8.30
2022-12-04T01:35:01.630Z,8.55
2022-12-04T01:37:33.080Z,8.62
2022-12-04T01:40:03.612Z,9.01
2022-12-04T01:42:34.340Z,9.04
2022-12-04T01:45:22.383Z,9.06
2022-12-04T01:47:55.469Z,9.06
2022-12-04T01:50:26.369Z,9.04
2022-12-04T01:52:57.592Z,9.16
2022-12-04T01:55:28.082Z,8.88
2022-12-04T01:57:59.825Z,8.86
2022-12-04T02:00:31.307Z,8.89
2022-12-04T02:03:02.736Z,8.93
2022-12-04T02:05:33.274Z,8.90
2022-12-04T02:08:06.175Z,8.84
2022-12-04T02:10:48.347Z,8.77
2022-12-04T02:13:23.239Z,8.84
2022-12-04T02:15:55.351Z,8.82
2022-12-04T02:18:32.284Z,8.58
2022-12-04T02:21:07.385Z,8.36
2022-12-04T02:23:51.643Z,8.59
2022-12-04T02:26:29.814Z,8.75
2022-12-04T02:29:04.233Z,8.81
2022-12-04T02:31:36.607Z,9.09
2022-12-04T02:34:10.581Z,9.19
2022-12-04T02:36:44.418Z,9.34
2022-12-04T02:39:19.423Z,9.25
2022-12-04T02:41:52.545Z,8.68
2022-12-04T02:44:25.125Z,8.80
2022-12-04T02:46:57.333Z,8.73
2022-12-04T02:49:29.357Z,8.85
2022-12-04T02:52:00.908Z,8.86
2022-12-04T02:54:33.530Z,8.81
2022-12-04T02:57:05.974Z,8.78
2022-12-04T02:59:38.836Z,8.67
2022-12-04T03:02:11.890Z,8.65
2022-12-04T03:04:43.537Z,8.97
2022-12-04T03:07:15.996Z,9.19
2022-12-04T03:09:48.935Z,9.37
2022-12-04T03:12:20.601Z,9.27
2022-12-04T03:14:53.479Z,9.38
2022-12-04T03:17:26.974Z,9.33
2022-12-04T03:19:59.659Z,7.61
2022-12-04T03:22:30.999Z,6.49
2022-12-04T03:25:02.355Z,7.01
2022-12-04T03:27:35.604Z,7.54
2022-12-04T03:30:04.673Z,7.77
2022-12-04T03:32:37.998Z,7.78
2022-12-04T03:35:12.587Z,8.31
2022-12-04T03:37:46.569Z,8.46
2022-12-04T03:40:21.286Z,8.73
2022-12-04T03:42:54.070Z,8.79
2022-12-04T03:45:26.639Z,8.92
2022-12-04T03:48:00.272Z,8.86
2022-12-04T03:50:35.007Z,8.95
2022-12-04T03:53:09.577Z,9.20
2022-12-04T03:55:43.298Z,9.04
2022-12-04T03:58:16.384Z,8.78
2022-12-04T04:00:48.694Z,8.89
2022-12-04T04:03:21.227Z,8.48
2022-12-04T04:05:54.842Z,8.54
2022-12-04T04:08:28.139Z,8.85
2022-12-04T04:11:01.096Z,8.79
2022-12-04T04:13:51.404Z,8.70
2022-12-04T04:16:41.285Z,8.63
2022-12-04T04:19:31.173Z,9.05
2022-12-04T04:22:21.818Z,9.19
2022-12-04T04:24:55.109Z,9.02
2022-12-04T04:27:24.093Z,9.12
2022-12-04T04:29:55.043Z,8.69
2022-12-04T04:32:30.560Z,8.73
2022-12-04T04:35:04.961Z,8.59
2022-12-04T04:37:39.689Z,8.63
2022-12-04T04:40:15.127Z,8.65
2022-12-04T04:42:47.418Z,8.88
2022-12-04T04:45:20.001Z,9.07
2022-12-04T04:47:53.300Z,9.10
2022-12-04T04:50:22.251Z,9.28
2022-12-04T04:52:55.755Z,9.08
2022-12-04T04:55:26.745Z,8.99
2022-12-04T04:58:07.008Z,9.01
2022-12-04T05:00:38.197Z,8.85
2022-12-04T05:03:08.961Z,8.85
2022-12-04T05:05:39.460Z,8.85
2022-12-04T05:08:10.337Z,8.63
2022-12-04T05:10:40.967Z,8.65
2022-12-04T05:13:12.894Z,8.73
2022-12-04T05:15:43.655Z,8.89
2022-12-04T05:18:14.354Z,8.81
2022-12-04T05:20:44.878Z,8.50
2022-12-04T05:23:15.516Z,8.60
2022-12-04T05:25:45.952Z,8.68
2022-12-04T05:28:16.705Z,8.49
2022-12-04T05:30:47.344Z,8.85
2022-12-04T05:33:18.238Z,8.79
2022-12-04T05:35:56.854Z,8.80
2022-12-04T05:38:28.145Z,8.88
2022-12-04T05:41:00.419Z,8.76
2022-12-04T05:43:31.293Z,8.88
2022-12-04T05:46:03.162Z,9.06
2022-12-04T05:48:35.129Z,9.21
2022-12-04T05:51:08.251Z,8.08
2022-12-04T05:53:39.522Z,7.06
2022-12-04T05:56:11.654Z,7.42
2022-12-04T05:58:42.260Z,8.09
2022-12-04T06:01:13.738Z,8.56
2022-12-04T06:03:44.439Z,8.53
2022-12-04T06:06:21.044Z,8.52
2022-12-04T06:08:53.559Z,8.96
2022-12-04T06:11:24.839Z,9.26
2022-12-04T06:13:56.841Z,9.35
2022-12-04T06:16:28.357Z,9.40
2022-12-04T06:19:00.827Z,9.28
2022-12-04T06:21:32.890Z,9.03
2022-12-04T06:24:03.631Z,7.51
2022-12-04T06:26:34.248Z,7.21
2022-12-04T06:29:05.089Z,7.99
2022-12-04T06:31:36.593Z,8.14
2022-12-04T06:34:08.627Z,8.42
2022-12-04T06:36:39.229Z,8.40
2022-12-04T06:39:14.160Z,8.52
2022-12-04T06:41:50.123Z,8.39
2022-12-04T06:44:20.755Z,8.64
2022-12-04T06:46:51.277Z,8.60
2022-12-04T06:49:23.343Z,8.79
2022-12-04T06:51:54.077Z,9.06
2022-12-04T06:54:24.505Z,8.92
2022-12-04T06:56:54.964Z,8.81
2022-12-04T06:59:25.603Z,8.71
2022-12-04T07:01:56.906Z,8.91
2022-12-04T07:04:28.154Z,8.69
2022-12-04T07:06:58.843Z,8.63
2022-12-04T07:09:29.313Z,8.66
2022-12-04T07:11:59.839Z,8.65
2022-12-04T07:14:31.037Z,9.00
2022-12-04T07:17:01.634Z,9.13
2022-12-04T07:19:32.293Z,8.87
2022-12-04T07:22:02.872Z,8.84
2022-12-04T07:24:33.712Z,9.06
2022-12-04T07:27:04.852Z,9.03
2022-12-04T07:29:35.692Z,8.92
2022-12-04T07:32:06.767Z,8.73
2022-12-04T07:34:37.566Z,8.62
2022-12-04T07:37:08.090Z,8.64
2022-12-04T07:39:38.535Z,8.74
2022-12-04T07:42:09.154Z,9.41
2022-12-04T07:44:39.695Z,9.25
2022-12-04T07:47:10.202Z,7.57
2022-12-04T07:49:40.978Z,7.51
2022-12-04T07:52:11.363Z,7.92
2022-12-04T07:54:42.244Z,8.34
2022-12-04T07:57:12.737Z,8.66
2022-12-04T07:59:43.467Z,8.48
2022-12-04T08:02:14.812Z,8.56
2022-12-04T08:04:45.560Z,8.86
2022-12-04T08:07:16.169Z,8.59
2022-12-04T08:09:47.418Z,8.70
2022-12-04T08:12:17.965Z,9.00
2022-12-04T08:14:50.560Z,9.01
2022-12-04T08:17:21.293Z,9.03
2022-12-04T08:19:52.236Z,8.93
2022-12-04T08:22:25.290Z,8.75
2022-12-04T08:24:56.256Z,8.85
2022-12-04T08:27:26.848Z,8.62
2022-12-04T08:29:57.763Z,8.69
2022-12-04T08:32:28.727Z,8.80
2022-12-04T08:34:59.480Z,9.24
2022-12-04T08:37:30.397Z,9.31
2022-12-04T08:40:01.087Z,8.15
2022-12-04T08:42:31.656Z,7.09
2022-12-04T08:45:02.406Z,7.49
2022-12-04T08:47:32.929Z,8.30
2022-12-04T08:50:03.772Z,8.56
2022-12-04T08:52:34.494Z,8.58
2022-12-04T08:55:05.292Z,8.96
2022-12-04T08:57:35.954Z,8.83
2022-12-04T09:00:07.408Z,8.99
2022-12-04T09:02:37.930Z,9.13
2022-12-04T09:05:08.975Z,9.21
2022-12-04T09:07:39.658Z,9.42
2022-12-04T09:10:11.365Z,9.53
2022-12-04T09:12:41.902Z,9.11
2022-12-04T09:15:13.032Z,7.89
2022-12-04T09:17:43.558Z,7.75
2022-12-04T09:20:15.321Z,8.48
2022-12-04T09:23:03.437Z,8.98
2022-12-04T09:25:36.666Z,9.11
2022-12-04T09:28:07.377Z,9.39
2022-12-04T09:30:38.332Z,9.43
2022-12-04T09:33:08.769Z,9.53
2022-12-04T09:35:41.014Z,9.82
2022-12-04T09:38:11.547Z,9.75
2022-12-04T09:40:47.001Z,8.25
2022-12-04T09:43:23.352Z,7.91
2022-12-04T09:45:56.682Z,8.49
2022-12-04T09:48:32.192Z,9.05
2022-12-04T09:51:03.246Z,9.32
2022-12-04T09:53:37.209Z,9.50
2022-12-04T09:56:09.523Z,9.30
2022-12-04T09:58:42.392Z,9.48
2022-12-04T10:01:18.556Z,9.82
2022-12-04T10:03:49.415Z,9.92
2022-12-04T10:06:24.341Z,9.86
2022-12-04T10:09:00.088Z,10.07
2022-12-04T10:11:38.017Z,9.09
2022-12-04T10:14:15.774Z,8.24
2022-12-04T10:16:52.958Z,9.00
2022-12-04T10:19:30.456Z,9.71
2022-12-04T10:22:05.531Z,10.08
2022-12-04T10:24:40.869Z,9.39
2022-12-04T10:27:13.554Z,8.31
2022-12-04T10:29:48.440Z,8.69
2022-12-04T10:32:21.834Z,9.67
2022-12-04T10:34:54.813Z,10.06
2022-12-04T10:37:25.957Z,10.06
2022-12-04T10:39:59.414Z,8.79
2022-12-04T10:42:32.651Z,8.30
2022-12-04T10:45:03.461Z,9.20
2022-12-04T10:47:34.506Z,9.89
2022-12-04T10:50:06.998Z,10.28
2022-12-04T10:52:37.855Z,10.25
2022-12-04T10:55:08.689Z,9.11
2022-12-04T10:57:40.433Z,8.35
2022-12-04T11:00:28.678Z,9.11
2022-12-04T11:03:01.175Z,9.80
2022-12-04T11:05:34.332Z,10.41
2022-12-04T11:08:06.272Z,10.70
2022-12-04T11:10:38.982Z,10.39
2022-12-04T11:13:16.816Z,9.02
2022-12-04T11:15:48.796Z,8.33
2022-12-04T11:18:20.707Z,9.27
2022-12-04T11:20:55.230Z,9.97
2022-12-04T11:23:26.752Z,10.29
2022-12-04T11:26:05.263Z,10.77
2022-12-04T11:28:42.668Z,10.88
2022-12-04T11:31:19.861Z,9.49
2022-12-04T11:33:53.556Z,9.47
2022-12-04T11:36:25.391Z,10.42
2022-12-04T11:39:05.373Z,10.89
2022-12-04T11:41:36.035Z,9.90
2022-12-04T11:44:08.891Z,8.90
2022-12-04T11:46:39.815Z,9.28
2022-12-04T11:49:21.823Z,10.23
2022-12-04T11:51:57.262Z,10.64
2022-12-04T11:54:30.715Z,11.06
2022-12-04T11:57:04.162Z,10.17
2022-12-04T11:59:41.955Z,9.29
2022-12-04T12:02:24.376Z,10.03
2022-12-04T12:05:04.316Z,10.95
2022-12-04T12:07:40.569Z,11.40
2022-12-04T12:10:13.938Z,10.80
2022-12-04T12:12:50.197Z,9.66
2022-12-04T12:15:24.941Z,9.30
2022-12-04T12:18:00.446Z,10.32
2022-12-04T12:20:32.907Z,10.98
2022-12-04T12:23:14.125Z,10.41
2022-12-04T12:25:52.168Z,9.48
2022-12-04T12:28:30.782Z,9.10
2022-12-04T12:31:07.769Z,10.11
2022-12-04T12:33:41.371Z,11.08
2022-12-04T12:36:12.608Z,11.62
2022-12-04T12:38:45.503Z,10.62
2022-12-04T12:41:17.860Z,9.63
2022-12-04T12:43:52.487Z,9.55
2022-12-04T12:46:26.272Z,10.63
2022-12-04T12:49:02.001Z,11.35
2022-12-04T12:51:34.886Z,11.43
2022-12-04T12:54:12.679Z,10.41
2022-12-04T12:56:49.748Z,9.61
2022-12-04T12:59:22.096Z,10.41
2022-12-04T13:02:00.209Z,11.20
2022-12-04T13:04:35.204Z,11.67
2022-12-04T13:07:12.402Z,10.92
2022-12-04T13:09:46.764Z,9.80
2022-12-04T13:12:19.597Z,10.01
2022-12-04T13:14:50.172Z,11.02
2022-12-04T13:17:22.606Z,11.60
2022-12-04T13:19:55.230Z,10.70
2022-12-04T13:22:29.377Z,9.57
2022-12-04T13:25:07.801Z,9.56
2022-12-04T13:27:43.807Z,10.58
2022-12-04T13:30:18.023Z,11.16
2022-12-04T13:32:46.861Z,11.19
2022-12-04T13:35:20.689Z,10.33
2022-12-04T13:38:01.052Z,9.20
2022-12-04T13:40:33.780Z,8.88
2022-12-04T13:43:24.572Z,9.97
2022-12-04T13:45:57.097Z,10.84
2022-12-04T13:48:32.696Z,11.27
2022-12-04T13:51:08.275Z,11.47
2022-12-04T13:53:40.534Z,10.14
2022-12-04T13:56:26.851Z,9.15
2022-12-04T13:59:05.496Z,9.88
2022-12-04T14:01:39.907Z,10.56
2022-12-04T14:04:23.984Z,10.86
2022-12-04T14:06:56.311Z,9.81
2022-12-04T14:09:31.639Z,8.86
2022-12-04T14:12:04.127Z,9.44
2022-12-04T14:14:38.643Z,10.00
2022-12-04T14:17:18.255Z,10.47
2022-12-04T14:19:53.653Z,10.53
2022-12-04T14:22:28.864Z,9.56
2022-12-04T14:25:21.568Z,8.58
2022-12-04T14:27:53.396Z,9.14
2022-12-04T14:30:25.210Z,9.41
2022-12-04T14:32:57.600Z,9.58
2022-12-04T14:35:29.355Z,9.95
2022-12-04T14:38:01.879Z,10.13
2022-12-04T14:40:35.257Z,10.37
2022-12-04T14:43:04.235Z,9.38
2022-12-04T14:45:38.058Z,8.06
2022-12-04T14:48:19.672Z,8.10
2022-12-04T14:50:55.174Z,9.03
2022-12-04T14:53:30.937Z,9.34
2022-12-04T14:56:07.802Z,9.65
2022-12-04T14:58:40.097Z,9.80
2022-12-04T15:01:25.292Z,9.64
2022-12-04T15:04:00.676Z,9.88
2022-12-04T15:06:33.353Z,9.72
2022-12-04T15:09:19.450Z,8.31
2022-12-04T15:12:09.641Z,7.55
2022-12-04T15:14:44.271Z,8.45
2022-12-04T15:17:16.625Z,8.68
2022-12-04T15:19:47.127Z,8.83
2022-12-04T15:22:22.405Z,9.19
2022-12-04T15:24:53.877Z,9.13
2022-12-04T15:27:31.925Z,8.27
2022-12-04T15:30:03.924Z,7.31
2022-12-04T15:32:35.159Z,7.92
2022-12-04T15:35:09.511Z,8.77
2022-12-04T15:37:42.004Z,8.95
2022-12-04T15:40:19.901Z,9.10
2022-12-04T15:43:16.842Z,9.23
2022-12-04T15:45:48.287Z,9.45
2022-12-04T15:48:25.422Z,9.07
2022-12-04T15:51:00.117Z,7.68
2022-12-04T15:53:31.693Z,7.06
2022-12-04T15:56:03.840Z,7.91
2022-12-04T15:58:35.767Z,8.57
2022-12-04T16:01:06.989Z,8.67
2022-12-04T16:03:39.954Z,8.90
2022-12-04T16:06:16.462Z,8.64
2022-12-04T16:08:48.309Z,8.84
2022-12-04T16:11:29.620Z,8.26
2022-12-04T16:14:14.779Z,7.27
2022-12-04T16:16:47.023Z,7.55
2022-12-04T16:19:18.914Z,8.30
2022-12-04T16:21:49.558Z,8.50
2022-12-04T16:24:20.683Z,8.45
2022-12-04T16:26:52.493Z,8.66
2022-12-04T16:29:25.340Z,8.75
2022-12-04T16:32:01.229Z,8.55
2022-12-04T16:34:33.662Z,8.86
2022-12-04T16:37:07.537Z,8.66
2022-12-04T16:39:41.342Z,7.22
2022-12-04T16:42:17.078Z,6.63
2022-12-04T16:45:04.630Z,7.09
2022-12-04T16:47:35.111Z,7.76
2022-12-04T16:50:06.370Z,8.25
2022-12-04T16:52:36.836Z,8.41
2022-12-04T16:55:11.820Z,8.19
2022-12-04T16:57:42.513Z,8.49
2022-12-04T17:00:15.038Z,8.70
2022-12-04T17:02:45.854Z,8.70
2022-12-04T17:05:20.689Z,8.84
2022-12-04T17:07:51.297Z,8.31
2022-12-04T17:10:24.339Z,7.11
2022-12-04T17:12:55.230Z,7.17
2022-12-04T17:15:25.982Z,7.58
2022-12-04T17:17:57.076Z,7.78
2022-12-04T17:20:28.256Z,8.13
2022-12-04T17:22:59.008Z,8.67
2022-12-04T17:25:29.889Z,8.60
2022-12-04T17:28:00.628Z,8.78
2022-12-04T17:30:36.005Z,8.95
2022-12-04T17:33:07.186Z,8.58
2022-12-04T17:35:37.819Z,7.17
2022-12-04T17:38:08.342Z,7.59
2022-12-04T17:40:39.102Z,8.22
2022-12-04T17:43:09.780Z,8.78
2022-12-04T17:45:42.368Z,8.82
2022-12-04T17:48:13.117Z,8.87
2022-12-04T17:50:43.959Z,8.57
2022-12-04T17:53:14.691Z,8.48
2022-12-04T17:55:45.420Z,8.87
2022-12-04T17:58:15.899Z,8.89
2022-12-04T18:00:46.511Z,8.85
2022-12-04T18:03:17.160Z,8.70
2022-12-04T18:05:48.310Z,8.82
2022-12-04T18:08:18.945Z,9.17
2022-12-04T18:10:50.079Z,8.06
2022-12-04T18:13:20.657Z,6.97
2022-12-04T18:15:51.953Z,7.29
2022-12-04T18:18:23.251Z,7.87
2022-12-04T18:21:02.324Z,7.84
2022-12-04T18:23:33.212Z,8.05
2022-12-04T18:26:05.429Z,8.20
2022-12-04T18:28:36.420Z,8.00
2022-12-04T18:31:08.092Z,8.47
2022-12-04T18:33:41.081Z,8.34
2022-12-04T18:36:14.151Z,8.42
2022-12-04T18:38:45.294Z,8.59
2022-12-04T18:41:16.996Z,8.31
2022-12-04T18:43:47.937Z,8.14
2022-12-04T18:46:20.334Z,8.15
2022-12-04T18:48:53.918Z,8.26
2022-12-04T18:51:23.369Z,8.32
2022-12-04T18:53:56.920Z,8.10
2022-12-04T18:56:28.014Z,8.46
2022-12-04T18:58:59.276Z,8.91
2022-12-04T19:01:31.700Z,8.66
2022-12-04T19:04:18.403Z,8.76
2022-12-04T19:06:50.408Z,8.58
2022-12-04T19:09:35.481Z,8.52
2022-12-04T19:12:13.201Z,8.76
2022-12-04T19:14:43.877Z,8.42
2022-12-04T19:17:15.483Z,8.16
2022-12-04T19:19:46.300Z,8.04
2022-12-04T19:22:17.008Z,8.12
2022-12-04T19:24:48.274Z,8.08
2022-12-04T19:27:19.753Z,8.01
2022-12-04T19:29:50.640Z,8.34
2022-12-04T19:32:22.221Z,8.51
2022-12-04T19:34:53.248Z,8.82
2022-12-04T19:37:23.875Z,8.65
2022-12-04T19:39:55.176Z,7.30
2022-12-04T19:42:26.361Z,6.70
2022-12-04T19:44:57.105Z,7.15
2022-12-04T19:47:27.831Z,7.74
2022-12-04T19:49:59.180Z,7.94
2022-12-04T19:52:32.617Z,8.25
2022-12-04T19:55:03.817Z,8.09
2022-12-04T19:57:35.060Z,7.92
2022-12-04T20:00:07.723Z,7.92
2022-12-04T20:02:42.742Z,7.97
2022-12-04T20:05:13.557Z,8.33
2022-12-04T20:07:44.193Z,8.52
2022-12-04T20:10:15.220Z,8.49
2022-12-04T20:12:46.571Z,8.62
2022-12-04T20:15:17.253Z,8.33
2022-12-04T20:17:47.677Z,8.35
2022-12-04T20:20:18.525Z,8.40
2022-12-04T20:22:49.352Z,8.55
2022-12-04T20:25:20.312Z,8.70
2022-12-04T20:27:51.140Z,8.74
2022-12-04T20:30:22.450Z,8.66
2022-12-04T20:32:53.279Z,8.99
2022-12-04T20:35:24.018Z,9.24
2022-12-04T20:37:54.668Z,8.34
2022-12-04T20:40:25.612Z,6.87
2022-12-04T20:42:56.340Z,6.82
2022-12-04T20:45:27.039Z,7.47
2022-12-04T20:47:57.612Z,8.00
2022-12-04T20:50:28.358Z,8.30
2022-12-04T20:52:59.035Z,8.43
2022-12-04T20:55:29.938Z,8.61
2022-12-04T20:58:00.739Z,8.58
2022-12-04T21:00:32.050Z,8.79
2022-12-04T21:03:03.563Z,8.83
2022-12-04T21:05:35.087Z,7.53
2022-12-04T21:08:05.904Z,6.54
2022-12-04T21:10:36.468Z,6.90
2022-12-04T21:13:26.640Z,7.44
2022-12-04T21:16:02.562Z,8.11
2022-12-04T21:18:33.227Z,8.16
2022-12-04T21:21:04.264Z,8.24
2022-12-04T21:23:36.318Z,8.38
2022-12-04T21:26:07.272Z,8.27
2022-12-04T21:28:38.026Z,8.32
2022-12-04T21:31:09.070Z,8.56
2022-12-04T21:33:40.081Z,8.37
2022-12-04T21:36:11.433Z,8.55
2022-12-04T21:38:42.170Z,8.44
2022-12-04T21:41:34.840Z,8.47
2022-12-04T21:44:07.001Z,8.57
2022-12-04T21:46:38.721Z,8.43
2022-12-04T21:49:09.619Z,8.59
2022-12-04T21:51:56.727Z,8.56
2022-12-04T21:54:28.453Z,8.32
2022-12-04T21:56:59.488Z,8.40
2022-12-04T21:59:30.323Z,8.65
2022-12-04T22:02:01.182Z,8.44
2022-12-04T22:04:31.917Z,8.30
2022-12-04T22:07:03.034Z,8.61
2022-12-04T22:09:33.901Z,8.62
2022-12-04T22:12:26.366Z,8.57
2022-12-04T22:14:55.675Z,8.54
2022-12-04T22:17:29.730Z,8.46
2022-12-04T22:20:00.385Z,8.58
2022-12-04T22:22:31.266Z,8.37
2022-12-04T22:25:02.638Z,8.19
2022-12-04T22:27:33.460Z,8.18
2022-12-04T22:30:04.985Z,8.13
2022-12-04T22:32:36.276Z,8.16
2022-12-04T22:35:07.328Z,8.04
2022-12-04T22:37:42.748Z,8.12
2022-12-04T22:40:15.867Z,8.22
2022-12-04T22:42:46.739Z,8.22
2022-12-04T22:45:17.679Z,8.39
2022-12-04T22:47:48.450Z,8.22
2022-12-04T22:50:19.449Z,8.17
2022-12-04T22:52:50.272Z,8.27
2022-12-04T22:55:21.270Z,8.26
2022-12-04T22:57:51.940Z,8.23
2022-12-04T23:00:22.838Z,8.27
2022-12-04T23:02:53.544Z,8.23
2022-12-04T23:05:24.151Z,8.38
2022-12-04T23:07:55.519Z,8.41
2022-12-04T23:10:26.489Z,8.50
2022-12-04T23:12:57.223Z,8.51
2022-12-04T23:15:30.771Z,8.13
2022-12-04T23:18:01.424Z,8.03
2022-12-04T23:20:32.027Z,8.44
2022-12-04T23:23:03.537Z,8.68
2022-12-04T23:25:39.433Z,8.77
2022-12-04T23:28:10.226Z,8.45
2022-12-04T23:30:45.453Z,8.49
2022-12-04T23:33:16.295Z,8.53
2022-12-04T23:35:47.136Z,8.52
2022-12-04T23:38:18.221Z,8.49
2022-12-04T23:40:49.211Z,8.42
2022-12-04T23:43:20.672Z,8.14
2022-12-04T23:45:51.293Z,8.41
2022-12-04T23:48:22.137Z,8.77
2022-12-04T23:50:53.226Z,8.73
2022-12-04T23:53:24.433Z,8.76
2022-12-04T23:55:58.639Z,7.47
2022-12-04T23:58:29.573Z,6.46
